Time,TemperatureF,DewpointF,PressureIn,WindDirection,WindDirectionDegrees,WindSpeedMPH,WindSpeedGustMPH,Humidity,HourlyPrecipIn,Conditions,Clouds,dailyrainin,SoftwareType,DateUTC
2013-08-30 00:06:00,72.2,64.0,29.89,SSW,199,3.0,5.0,75,0.00,,,0.00,weatherlink.com 1.10,2013-08-30 04:06:00,
2013-08-30 00:21:00,72.5,66.0,29.88,South,185,2.0,7.0,79,0.00,,,0.00,weatherlink.com 1.10,2013-08-30 04:21:00,
2013-08-30 00:36:00,72.8,65.0,29.88,South,180,4.0,9.0,77,0.00,,,0.00,weatherlink.com 1.10,2013-08-30 04:36:00,
2013-08-30 00:51:00,73.1,65.0,29.88,SSE,164,5.0,7.0,76,0.00,,,0.00,weatherlink.com 1.10,2013-08-30 04:51:00,
2013-08-30 01:06:00,73.3,65.0,29.88,South,184,3.0,7.0,76,0.00,,,0.00,weatherlink.com 1.10,2013-08-30 05:06:00,
2013-08-30 01:21:00,73.0,66.0,29.88,SSE,151,3.0,7.0,78,0.00,,,0.00,weatherlink.com 1.10,2013-08-30 05:21:00,
2013-08-30 01:36:00,72.4,66.0,29.88,South,175,0.0,5.0,79,0.00,,,0.00,weatherlink.com 1.10,2013-08-30 05:36:00,
2013-08-30 01:51:00,72.0,66.0,29.87,SE,138,4.0,5.0,81,0.00,,,0.00,weatherlink.com 1.10,2013-08-30 05:51:00,
2013-08-30 02:06:00,71.5,66.0,29.87,SSE,159,2.0,8.0,82,0.00,,,0.00,weatherlink.com 1.10,2013-08-30 06:06:00,
2013-08-30 02:21:00,71.3,66.0,29.86,SSE,165,3.0,8.0,84,0.00,,,0.00,weatherlink.com 1.10,2013-08-30 06:21:00,
2013-08-30 02:36:00,70.8,67.0,29.85,SE,137,0.0,5.0,86,0.00,,,0.00,weatherlink.com 1.10,2013-08-30 06:36:00,
2013-08-30 02:51:00,70.6,67.0,29.85,SSE,163,0.0,1.0,87,0.00,,,0.00,weatherlink.com 1.10,2013-08-30 06:51:00,
2013-08-30 03:06:00,70.5,67.0,29.86,SSW,203,0.0,3.0,88,0.00,,,0.00,weatherlink.com 1.10,2013-08-30 07:06:00,
2013-08-30 03:21:00,70.5,67.0,29.85,SSE,165,0.0,5.0,89,0.00,,,0.00,weatherlink.com 1.10,2013-08-30 07:21:00,
2013-08-30 03:36:00,70.6,67.0,29.84,South,173,0.0,5.0,89,0.00,,,0.00,weatherlink.com 1.10,2013-08-30 07:36:00,
2013-08-30 03:51:00,70.3,67.0,29.83,South,178,0.0,3.0,89,0.00,,,0.00,weatherlink.com 1.10,2013-08-30 07:51:00,
2013-08-30 04:07:00,71.7,67.0,29.83,SSW,209,3.0,7.0,85,0.00,,,0.00,weatherlink.com 1.10,2013-08-30 08:07:00,
2013-08-30 04:22:00,72.8,67.0,29.82,SSW,193,4.0,6.0,82,0.00,,,0.00,weatherlink.com 1.10,2013-08-30 08:22:00,
2013-08-30 04:37:00,72.7,67.0,29.82,South,175,1.0,5.0,83,0.00,,,0.00,weatherlink.com 1.10,2013-08-30 08:37:00,
2013-08-30 04:52:00,72.7,67.0,29.80,SSW,192,1.0,5.0,82,0.00,,,0.00,weatherlink.com 1.10,2013-08-30 08:52:00,
2013-08-30 05:07:00,72.6,67.0,29.80,South,175,1.0,4.0,82,0.00,,,0.00,weatherlink.com 1.10,2013-08-30 09:07:00,
2013-08-30 05:22:00,72.5,67.0,29.79,South,173,0.0,3.0,82,0.00,,,0.00,weatherlink.com 1.10,2013-08-30 09:22:00,
2013-08-30 05:37:00,72.5,66.0,29.80,SSW,192,2.0,5.0,81,0.00,,,0.00,weatherlink.com 1.10,2013-08-30 09:37:00,
2013-08-30 05:52:00,72.4,67.0,29.79,SSW,193,4.0,5.0,82,0.00,,,0.00,weatherlink.com 1.10,2013-08-30 09:52:00,
2013-08-30 06:07:00,72.0,67.0,29.79,South,174,1.0,6.0,83,0.00,,,0.00,weatherlink.com 1.10,2013-08-30 10:07:00,
2013-08-30 06:22:00,71.5,67.0,29.79,SSW,194,3.0,5.0,85,0.00,,,0.00,weatherlink.com 1.10,2013-08-30 10:22:00,
2013-08-30 06:37:00,70.6,67.0,29.79,South,185,1.0,4.0,88,0.00,,,0.00,weatherlink.com 1.10,2013-08-30 10:37:00,
2013-08-30 06:52:00,70.1,67.0,29.78,South,180,0.0,4.0,89,0.00,,,0.00,weatherlink.com 1.10,2013-08-30 10:52:00,
2013-08-30 07:07:00,69.8,67.0,29.78,SE,143,2.0,6.0,91,0.00,,,0.00,weatherlink.com 1.10,2013-08-30 11:07:00,
2013-08-30 07:22:00,69.9,67.0,29.78,SSE,163,0.0,7.0,91,0.00,,,0.00,weatherlink.com 1.10,2013-08-30 11:22:00,
2013-08-30 07:37:00,69.7,67.0,29.78,SSE,158,2.0,3.0,91,0.00,,,0.00,weatherlink.com 1.10,2013-08-30 11:37:00,
2013-08-30 07:52:00,70.1,67.0,29.78,South,176,2.0,4.0,91,0.00,,,0.00,weatherlink.com 1.10,2013-08-30 11:52:00,
2013-08-30 08:07:00,70.1,67.0,29.76,South,175,1.0,3.0,91,0.00,,,0.00,weatherlink.com 1.10,2013-08-30 12:07:00,
2013-08-30 08:22:00,71.0,68.0,29.75,South,175,3.0,5.0,90,0.00,,,0.00,weatherlink.com 1.10,2013-08-30 12:22:00,
2013-08-30 08:37:00,72.1,68.0,29.75,SSE,162,1.0,6.0,88,0.00,,,0.00,weatherlink.com 1.10,2013-08-30 12:37:00,
2013-08-30 08:52:00,72.4,68.0,29.76,SSW,198,3.0,6.0,87,0.00,,,0.00,weatherlink.com 1.10,2013-08-30 12:52:00,
2013-08-30 09:07:00,72.4,68.0,29.77,SSW,203,5.0,7.0,87,0.00,,,0.00,weatherlink.com 1.10,2013-08-30 13:07:00,
2013-08-30 09:22:00,71.9,68.0,29.78,SW,235,3.0,7.0,88,0.01,,,0.01,weatherlink.com 1.10,2013-08-30 13:22:00,
2013-08-30 09:37:00,70.9,68.0,29.78,WSW,240,2.0,5.0,90,0.04,,,0.04,weatherlink.com 1.10,2013-08-30 13:37:00,
2013-08-30 09:52:00,70.1,68.0,29.77,SSW,213,0.0,3.0,92,0.06,,,0.06,weatherlink.com 1.10,2013-08-30 13:52:00,
2013-08-30 10:07:00,69.7,68.0,29.78,SW,220,2.0,3.0,94,0.09,,,0.09,weatherlink.com 1.10,2013-08-30 14:07:00,
2013-08-30 10:22:00,69.4,68.0,29.77,SSW,207,0.0,2.0,94,0.14,,,0.15,weatherlink.com 1.10,2013-08-30 14:22:00,
2013-08-30 10:37:00,69.2,68.0,29.76,SSW,195,1.0,2.0,95,0.17,,,0.21,weatherlink.com 1.10,2013-08-30 14:37:00,
2013-08-30 10:52:00,68.9,68.0,29.74,SSE,159,1.0,5.0,95,0.22,,,0.28,weatherlink.com 1.10,2013-08-30 14:52:00,
2013-08-30 11:07:00,68.8,67.0,29.74,SE,143,1.0,4.0,95,0.24,,,0.33,weatherlink.com 1.10,2013-08-30 15:07:00,
2013-08-30 11:22:00,68.7,67.0,29.74,SSE,153,1.0,5.0,95,0.21,,,0.36,weatherlink.com 1.10,2013-08-30 15:22:00,
2013-08-30 11:37:00,68.9,68.0,29.73,SE,131,2.0,3.0,96,0.17,,,0.38,weatherlink.com 1.10,2013-08-30 15:37:00,
2013-08-30 11:52:00,69.0,68.0,29.73,SSE,163,2.0,6.0,96,0.11,,,0.39,weatherlink.com 1.10,2013-08-30 15:52:00,
2013-08-30 12:07:00,68.7,67.0,29.71,ESE,109,5.0,8.0,95,0.08,,,0.41,weatherlink.com 1.10,2013-08-30 16:07:00,
2013-08-30 12:22:00,68.9,68.0,29.70,SE,143,3.0,9.0,95,0.05,,,0.42,weatherlink.com 1.10,2013-08-30 16:22:00,
2013-08-30 12:37:00,69.2,68.0,29.69,SSE,153,5.0,8.0,94,0.04,,,0.42,weatherlink.com 1.10,2013-08-30 16:37:00,
2013-08-30 12:52:00,69.0,67.0,29.69,SSE,150,3.0,8.0,94,0.03,,,0.42,weatherlink.com 1.10,2013-08-30 16:52:00,
2013-08-30 13:07:00,68.8,67.0,29.69,South,175,1.0,6.0,94,0.01,,,0.42,weatherlink.com 1.10,2013-08-30 17:07:00,
2013-08-30 13:22:00,68.7,67.0,29.68,SSE,148,9.0,9.0,94,0.00,,,0.42,weatherlink.com 1.10,2013-08-30 17:22:00,
2013-08-30 13:37:00,68.8,67.0,29.68,South,178,3.0,9.0,95,0.00,,,0.42,weatherlink.com 1.10,2013-08-30 17:37:00,
2013-08-30 13:52:00,69.0,68.0,29.68,SSE,150,3.0,12.0,95,0.00,,,0.42,weatherlink.com 1.10,2013-08-30 17:52:00,
2013-08-30 14:07:00,69.3,68.0,29.68,SSW,197,2.0,14.0,94,0.00,,,0.42,weatherlink.com 1.10,2013-08-30 18:07:00,
2013-08-30 14:22:00,69.3,68.0,29.68,SW,232,4.0,9.0,95,0.00,,,0.42,weatherlink.com 1.10,2013-08-30 18:22:00,
2013-08-30 14:37:00,69.4,68.0,29.68,SW,215,3.0,8.0,95,0.00,,,0.42,weatherlink.com 1.10,2013-08-30 18:37:00,
2013-08-30 14:53:00,69.6,68.0,29.67,SW,215,2.0,11.0,95,0.00,,,0.42,weatherlink.com 1.10,2013-08-30 18:53:00,
2013-08-30 15:08:00,70.4,69.0,29.66,WSW,246,5.0,11.0,94,0.00,,,0.42,weatherlink.com 1.10,2013-08-30 19:08:00,
2013-08-30 15:23:00,71.0,69.0,29.66,WSW,254,7.0,11.0,94,0.00,,,0.42,weatherlink.com 1.10,2013-08-30 19:23:00,
2013-08-30 15:38:00,72.0,70.0,29.66,West,260,7.0,13.0,92,0.00,,,0.42,weatherlink.com 1.10,2013-08-30 19:38:00,
2013-08-30 15:53:00,72.1,69.0,29.66,West,275,9.0,12.0,91,0.00,,,0.42,weatherlink.com 1.10,2013-08-30 19:53:00,
2013-08-30 16:08:00,72.3,70.0,29.66,NW,304,9.0,12.0,92,0.00,,,0.42,weatherlink.com 1.10,2013-08-30 20:08:00,
2013-08-30 16:23:00,71.8,69.0,29.66,NW,313,11.0,15.0,91,0.00,,,0.42,weatherlink.com 1.10,2013-08-30 20:23:00,
2013-08-30 16:38:00,72.4,69.0,29.67,NW,315,16.0,19.0,89,0.00,,,0.42,weatherlink.com 1.10,2013-08-30 20:38:00,
2013-08-30 16:53:00,72.0,69.0,29.67,WNW,302,15.0,19.0,89,0.00,,,0.42,weatherlink.com 1.10,2013-08-30 20:53:00,
2013-08-30 17:08:00,71.4,68.0,29.67,WNW,283,9.0,18.0,90,0.00,,,0.42,weatherlink.com 1.10,2013-08-30 21:08:00,
2013-08-30 17:23:00,71.0,68.0,29.68,WNW,291,8.0,16.0,91,0.00,,,0.42,weatherlink.com 1.10,2013-08-30 21:23:00,
2013-08-30 17:38:00,70.6,68.0,29.68,NNW,329,14.0,18.0,92,0.00,,,0.42,weatherlink.com 1.10,2013-08-30 21:38:00,
2013-08-30 17:53:00,69.3,67.0,29.69,NNW,344,11.0,16.0,93,0.00,,,0.42,weatherlink.com 1.10,2013-08-30 21:53:00,
2013-08-30 18:08:00,69.4,67.0,29.69,NNW,344,7.0,11.0,93,0.00,,,0.42,weatherlink.com 1.10,2013-08-30 22:08:00,
2013-08-30 18:23:00,69.5,67.0,29.70,NW,325,6.0,10.0,92,0.00,,,0.42,weatherlink.com 1.10,2013-08-30 22:23:00,
2013-08-30 18:38:00,69.7,67.0,29.70,North,355,6.0,9.0,92,0.00,,,0.42,weatherlink.com 1.10,2013-08-30 22:38:00,
2013-08-30 18:53:00,70.2,68.0,29.70,North,350,7.0,9.0,91,0.00,,,0.42,weatherlink.com 1.10,2013-08-30 22:53:00,
2013-08-30 19:08:00,70.7,68.0,29.71,NNW,333,6.0,7.0,90,0.00,,,0.42,weatherlink.com 1.10,2013-08-30 23:08:00,
2013-08-30 19:23:00,70.4,67.0,29.71,NNE,19,6.0,8.0,90,0.00,,,0.42,weatherlink.com 1.10,2013-08-30 23:23:00,
2013-08-30 19:38:00,69.8,67.0,29.72,North,10,3.0,6.0,91,0.00,,,0.42,weatherlink.com 1.10,2013-08-30 23:38:00,
2013-08-30 19:53:00,69.0,67.0,29.72,NNE,13,0.0,3.0,92,0.00,,,0.42,weatherlink.com 1.10,2013-08-30 23:53:00,
2013-08-30 20:08:00,68.5,67.0,29.73,NNE,17,6.0,6.0,93,0.00,,,0.42,weatherlink.com 1.10,2013-08-31 00:08:00,
2013-08-30 20:23:00,69.0,66.0,29.74,NNE,22,7.0,11.0,91,0.00,,,0.42,weatherlink.com 1.10,2013-08-31 00:23:00,
2013-08-30 20:38:00,69.2,66.0,29.74,North,5,8.0,14.0,89,0.00,,,0.42,weatherlink.com 1.10,2013-08-31 00:38:00,
2013-08-30 20:53:00,69.1,66.0,29.75,North,11,9.0,14.0,89,0.00,,,0.42,weatherlink.com 1.10,2013-08-31 00:53:00,
2013-08-30 21:08:00,69.2,65.0,29.76,NNE,23,10.0,18.0,87,0.00,,,0.42,weatherlink.com 1.10,2013-08-31 01:08:00,
2013-08-30 21:23:00,68.9,65.0,29.76,NNE,22,10.0,15.0,88,0.00,,,0.42,weatherlink.com 1.10,2013-08-31 01:23:00,
2013-08-30 21:38:00,68.5,65.0,29.77,NNE,24,8.0,12.0,89,0.00,,,0.42,weatherlink.com 1.10,2013-08-31 01:38:00,
2013-08-30 21:53:00,68.3,65.0,29.77,North,5,9.0,12.0,90,0.00,,,0.42,weatherlink.com 1.10,2013-08-31 01:53:00,
2013-08-30 22:08:00,68.2,65.0,29.78,NNE,13,4.0,12.0,90,0.00,,,0.42,weatherlink.com 1.10,2013-08-31 02:08:00,
2013-08-30 22:23:00,67.8,66.0,29.78,NNW,333,5.0,7.0,92,0.00,,,0.42,weatherlink.com 1.10,2013-08-31 02:23:00,
2013-08-30 22:38:00,67.6,66.0,29.78,NNW,333,6.0,7.0,93,0.00,,,0.42,weatherlink.com 1.10,2013-08-31 02:38:00,
2013-08-30 22:53:00,67.6,65.0,29.78,NNW,332,7.0,8.0,92,0.00,,,0.42,weatherlink.com 1.10,2013-08-31 02:53:00,
2013-08-30 23:08:00,67.6,65.0,29.79,NNW,344,3.0,9.0,91,0.00,,,0.42,weatherlink.com 1.10,2013-08-31 03:08:00,
2013-08-30 23:23:00,67.5,65.0,29.79,NNW,328,7.0,8.0,91,0.00,,,0.42,weatherlink.com 1.10,2013-08-31 03:23:00,
2013-08-30 23:38:00,67.4,65.0,29.79,NNW,330,5.0,7.0,91,0.00,,,0.42,weatherlink.com 1.10,2013-08-31 03:38:00,
2013-08-30 23:53:00,67.3,65.0,29.79,North,9,3.0,7.0,91,0.00,,,0.42,weatherlink.com 1.10,2013-08-31 03:53:00,